createdAt,value
2018-06-29T00:00:57.253Z,16.46
2018-06-29T00:01:57.835Z,16.42
2018-06-29T00:02:57.388Z,16.41
2018-06-29T00:03:57.052Z,16.39
2018-06-29T00:04:57.473Z,16.35
2018-06-29T00:06:18.891Z,16.31
2018-06-29T00:07:19.103Z,16.28
2018-06-29T00:08:40.471Z,16.26
2018-06-29T00:09:40.962Z,16.20
2018-06-29T00:10:41.490Z,16.10
2018-06-29T00:11:40.818Z,16.00
2018-06-29T00:12:41.159Z,15.92
2018-06-29T00:14:03.579Z,15.84
2018-06-29T00:15:03.921Z,15.82
2018-06-29T00:16:04.341Z,15.82
2018-06-29T00:17:24.643Z,15.79
2018-06-29T00:18:24.961Z,15.75
2018-06-29T00:19:46.453Z,15.75
2018-06-29T00:20:47.155Z,15.76
2018-06-29T00:22:07.585Z,15.82
2018-06-29T00:23:07.978Z,15.80
2018-06-29T00:24:29.330Z,15.86
2018-06-29T00:25:29.712Z,15.84
2018-06-29T00:26:30.093Z,15.82
2018-06-29T00:27:29.790Z,15.79
2018-06-29T00:28:30.171Z,15.75
2018-06-29T00:29:29.842Z,15.75
2018-06-29T00:30:29.242Z,15.76
2018-06-29T00:31:29.808Z,15.76
2018-06-29T00:32:30.009Z,15.75
2018-06-29T00:33:29.282Z,15.76
2018-06-29T00:34:29.846Z,15.75
2018-06-29T00:35:29.432Z,15.73
2018-06-29T00:36:29.937Z,15.73
2018-06-29T00:37:29.295Z,15.75
2018-06-29T00:38:29.893Z,15.76
2018-06-29T00:39:30.260Z,15.76
2018-06-29T00:40:50.916Z,15.77
2018-06-29T00:41:51.295Z,15.77
2018-06-29T00:43:13.081Z,15.76
2018-06-29T00:44:34.333Z,15.82
2018-06-29T00:46:19.611Z,15.80
2018-06-29T00:47:19.910Z,15.80
2018-06-29T00:48:20.301Z,15.82
2018-06-29T00:49:19.630Z,15.80
2018-06-29T00:50:20.293Z,15.79
2018-06-29T00:51:19.577Z,15.79
2018-06-29T00:52:19.860Z,15.77
2018-06-29T00:53:20.480Z,15.77
2018-06-29T00:54:19.867Z,15.77
2018-06-29T00:55:20.525Z,15.77
2018-06-29T00:56:41.104Z,15.77
2018-06-29T00:58:03.099Z,15.75
2018-06-29T00:59:03.576Z,15.76
2018-06-29T01:00:03.145Z,15.73
2018-06-29T01:01:24.788Z,15.73
2018-06-29T01:02:25.165Z,15.70
2018-06-29T01:03:24.692Z,15.68
2018-06-29T01:04:25.254Z,15.67
2018-06-29T01:05:46.285Z,15.67
2018-06-29T01:06:46.878Z,15.70
2018-06-29T01:07:46.156Z,15.70
2018-06-29T01:08:46.800Z,15.67
2018-06-29T01:09:46.087Z,15.64
2018-06-29T01:10:46.279Z,15.65
2018-06-29T01:11:46.731Z,15.68
2018-06-29T01:13:07.111Z,15.65
2018-06-29T01:14:07.568Z,15.61
2018-06-29T01:15:07.908Z,15.58
2018-06-29T01:16:07.467Z,15.55
2018-06-29T01:17:08.117Z,15.54
2018-06-29T01:18:07.684Z,15.51
2018-06-29T01:19:08.007Z,15.49
2018-06-29T01:20:07.396Z,15.51
2018-06-29T01:21:07.743Z,15.49
2018-06-29T01:22:07.990Z,15.47
2018-06-29T01:23:07.559Z,15.43
2018-06-29T01:24:08.225Z,15.39
2018-06-29T01:25:07.733Z,15.35
2018-06-29T01:26:08.182Z,15.31
2018-06-29T01:27:07.776Z,15.28
2018-06-29T01:28:07.185Z,15.25
2018-06-29T01:29:07.661Z,15.27
2018-06-29T01:30:07.987Z,15.22
2018-06-29T01:31:07.639Z,15.24
2018-06-29T01:32:07.994Z,15.19
2018-06-29T01:33:07.618Z,15.18
2018-06-29T01:34:08.169Z,15.15
2018-06-29T01:35:07.500Z,15.14
2018-06-29T01:36:07.863Z,15.10
2018-06-29T01:37:07.211Z,15.10
2018-06-29T01:38:07.694Z,15.09
2018-06-29T01:39:07.362Z,15.07
2018-06-29T01:40:07.964Z,15.09
2018-06-29T01:41:07.424Z,15.10
2018-06-29T01:42:08.003Z,15.06
2018-06-29T01:43:07.468Z,15.03
2018-06-29T01:44:07.818Z,14.94
2018-06-29T01:45:07.149Z,14.85
2018-06-29T01:46:07.519Z,14.79
2018-06-29T01:47:07.960Z,14.72
2018-06-29T01:48:07.593Z,14.63
2018-06-29T01:49:06.944Z,14.59
2018-06-29T01:50:07.348Z,14.59
2018-06-29T01:51:08.067Z,14.53
2018-06-29T01:52:07.563Z,14.50
2018-06-29T01:53:08.061Z,14.50
2018-06-29T01:54:07.518Z,14.47
2018-06-29T01:55:07.167Z,14.40
2018-06-29T01:56:07.612Z,14.36
2018-06-29T01:57:08.061Z,14.33
2018-06-29T01:58:07.544Z,14.33
2018-06-29T01:59:08.101Z,14.33
2018-06-29T02:00:07.465Z,14.32
2018-06-29T02:01:08.088Z,14.25
2018-06-29T02:02:07.751Z,14.25
2018-06-29T02:03:06.949Z,14.25
2018-06-29T02:04:07.273Z,14.22
2018-06-29T02:05:07.887Z,14.20
2018-06-29T02:06:07.297Z,14.26
2018-06-29T02:07:07.863Z,14.26
2018-06-29T02:08:07.436Z,14.29
2018-06-29T02:09:07.656Z,14.33
2018-06-29T02:10:07.936Z,14.35
2018-06-29T02:11:07.489Z,14.36
2018-06-29T02:12:08.049Z,14.35
2018-06-29T02:13:07.577Z,14.33
2018-06-29T02:14:07.165Z,14.33
2018-06-29T02:15:07.387Z,14.35
2018-06-29T02:16:07.620Z,14.36
2018-06-29T02:17:08.022Z,14.35
2018-06-29T02:18:07.321Z,14.33
2018-06-29T02:19:07.684Z,14.30
2018-06-29T02:20:07.160Z,14.28
2018-06-29T02:21:07.336Z,14.26
2018-06-29T02:22:07.897Z,14.26
2018-06-29T02:23:07.421Z,14.25
2018-06-29T02:24:29.140Z,14.17
2018-06-29T02:25:29.435Z,14.12
2018-06-29T02:26:29.955Z,14.08
2018-06-29T02:27:50.762Z,14.11
2018-06-29T02:28:50.990Z,14.10
2018-06-29T02:29:51.522Z,14.11
2018-06-29T02:30:50.958Z,14.05
2018-06-29T02:31:51.528Z,14.05
2018-06-29T02:32:51.058Z,14.03
2018-06-29T02:33:51.622Z,13.99
2018-06-29T02:34:50.861Z,13.95
2018-06-29T02:35:51.259Z,14.03
2018-06-29T02:36:50.754Z,14.05
2018-06-29T02:37:51.205Z,14.05
2018-06-29T02:40:38.329Z,13.99
2018-06-29T02:41:38.654Z,13.97
2018-06-29T02:42:39.507Z,13.96
2018-06-29T02:43:39.021Z,14.03
2018-06-29T02:44:38.884Z,14.00
2018-06-29T02:45:39.295Z,13.97
2018-06-29T02:46:38.806Z,14.04
2018-06-29T02:47:39.648Z,14.00
2018-06-29T02:49:00.414Z,13.95
2018-06-29T02:50:22.322Z,13.89
2018-06-29T02:51:22.786Z,13.89
2018-06-29T02:52:22.140Z,13.87
2018-06-29T02:53:22.874Z,13.89
2018-06-29T02:54:22.410Z,13.89
2018-06-29T02:55:44.196Z,13.79
2018-06-29T02:56:44.652Z,13.78
2018-06-29T02:57:44.193Z,13.75
2018-06-29T02:58:44.686Z,13.67
2018-06-29T02:59:44.326Z,13.57
2018-06-29T03:00:44.784Z,13.56
2018-06-29T03:02:05.396Z,13.50
2018-06-29T03:03:06.012Z,13.47
2018-06-29T03:04:05.627Z,13.49
2018-06-29T03:05:06.003Z,13.47
2018-06-29T03:06:05.621Z,13.52
2018-06-29T03:07:06.322Z,13.52
2018-06-29T03:08:05.877Z,13.50
2018-06-29T03:09:06.480Z,13.49
2018-06-29T03:10:06.036Z,13.52
2018-06-29T03:11:05.591Z,13.53
2018-06-29T03:12:06.413Z,13.53
2018-06-29T03:13:06.022Z,13.54
2018-06-29T03:14:05.670Z,13.53
2018-06-29T03:15:06.182Z,13.52
2018-06-29T03:16:05.733Z,13.50
2018-06-29T03:17:06.159Z,13.49
2018-06-29T03:18:05.654Z,13.47
2018-06-29T03:19:05.994Z,13.47
2018-06-29T03:20:05.413Z,13.52
2018-06-29T03:21:06.050Z,13.54
2018-06-29T03:22:05.421Z,13.57
2018-06-29T03:23:06.112Z,13.62
2018-06-29T03:24:05.617Z,13.62
2018-06-29T03:25:06.083Z,13.62
2018-06-29T03:26:05.465Z,13.62
2018-06-29T03:27:05.831Z,13.60
2018-06-29T03:28:06.216Z,13.59
2018-06-29T03:29:05.496Z,13.59
2018-06-29T03:30:05.945Z,13.54
2018-06-29T03:31:05.350Z,13.54
2018-06-29T03:32:06.249Z,13.54
2018-06-29T03:33:27.174Z,13.53
2018-06-29T03:34:27.660Z,13.53
2018-06-29T03:35:27.216Z,13.53
2018-06-29T03:36:27.863Z,13.57
2018-06-29T03:37:27.461Z,13.60
2018-06-29T03:38:27.998Z,13.57
2018-06-29T03:39:48.838Z,13.59
2018-06-29T03:40:49.330Z,13.57
2018-06-29T03:42:31.496Z,13.54
2018-06-29T03:43:32.314Z,13.57
2018-06-29T03:44:31.853Z,13.56
2018-06-29T03:45:31.703Z,13.56
2018-06-29T03:46:32.411Z,13.57
2018-06-29T03:47:31.912Z,13.56
2018-06-29T03:48:31.386Z,13.56
2018-06-29T03:49:32.306Z,13.56
2018-06-29T03:50:32.027Z,13.63
2018-06-29T03:51:31.753Z,13.67
2018-06-29T03:52:32.385Z,13.67
2018-06-29T03:53:31.930Z,13.67
2018-06-29T03:54:31.547Z,13.65
2018-06-29T03:55:53.637Z,13.57
2018-06-29T03:56:54.110Z,13.60
2018-06-29T03:57:53.613Z,13.60
2018-06-29T03:58:54.021Z,13.60
2018-06-29T03:59:53.728Z,13.65
2018-06-29T04:00:54.227Z,13.67
2018-06-29T04:01:53.969Z,13.62
2018-06-29T04:02:54.273Z,13.62
2018-06-29T04:03:53.698Z,13.60
2018-06-29T04:04:54.312Z,13.60
2018-06-29T04:06:36.579Z,13.63
2018-06-29T04:08:23.250Z,13.65
2018-06-29T04:09:12.735Z,13.65
2018-06-29T04:10:13.186Z,13.65
2018-06-29T04:11:12.906Z,13.72
2018-06-29T04:12:12.370Z,13.75
2018-06-29T04:13:13.170Z,13.77
2018-06-29T04:14:12.819Z,13.79
2018-06-29T04:15:12.570Z,13.78
2018-06-29T04:16:13.099Z,13.77
2018-06-29T04:17:55.353Z,13.75
2018-06-29T04:18:55.741Z,13.74
2018-06-29T04:19:55.198Z,13.75
2018-06-29T04:20:55.691Z,13.77
2018-06-29T04:21:55.404Z,13.77
2018-06-29T04:22:55.825Z,13.77
2018-06-29T04:23:55.396Z,13.78
2018-06-29T04:24:56.142Z,13.79
2018-06-29T04:25:55.548Z,13.85
2018-06-29T04:26:56.224Z,13.89
2018-06-29T04:27:55.671Z,13.92
2018-06-29T04:28:56.232Z,13.93
2018-06-29T04:29:55.781Z,13.96
2018-06-29T04:30:55.423Z,13.99
2018-06-29T04:31:56.058Z,14.04
2018-06-29T04:32:55.745Z,14.11
2018-06-29T04:33:55.269Z,14.17
2018-06-29T04:35:17.172Z,14.28
2018-06-29T04:36:17.697Z,14.33
2018-06-29T04:37:18.177Z,14.41
2018-06-29T04:38:18.553Z,14.51
2018-06-29T04:39:18.234Z,14.60
2018-06-29T04:40:17.928Z,14.65
2018-06-29T04:41:17.351Z,14.72
2018-06-29T04:42:18.069Z,14.79
2018-06-29T04:43:17.708Z,14.86
2018-06-29T04:44:18.295Z,14.94
2018-06-29T04:45:18.045Z,15.00
2018-06-29T04:46:17.701Z,15.06
2018-06-29T04:47:17.475Z,15.11
2018-06-29T04:48:18.233Z,15.19
2018-06-29T04:49:17.803Z,15.25
2018-06-29T04:50:17.486Z,15.31
2018-06-29T04:51:18.379Z,15.36
2018-06-29T04:52:39.295Z,15.43
2018-06-29T04:54:01.317Z,15.51
2018-06-29T04:55:01.688Z,15.58
2018-06-29T04:56:02.182Z,15.62
2018-06-29T04:57:01.872Z,15.72
2018-06-29T04:58:01.427Z,15.80
2018-06-29T04:59:01.873Z,15.90
2018-06-29T05:00:02.463Z,15.97
2018-06-29T05:01:02.145Z,16.01
2018-06-29T05:02:01.994Z,16.05
2018-06-29T05:03:01.650Z,16.10
2018-06-29T05:04:02.271Z,16.16
2018-06-29T05:05:01.911Z,16.21
2018-06-29T05:06:23.088Z,16.26
2018-06-29T05:07:23.659Z,16.35
2018-06-29T05:08:23.097Z,16.38
2018-06-29T05:09:23.818Z,16.39
2018-06-29T05:10:23.433Z,16.47
2018-06-29T05:12:09.252Z,16.58
2018-06-29T05:13:32.995Z,16.71
2018-06-29T05:14:55.386Z,16.78
2018-06-29T05:16:17.765Z,16.86
2018-06-29T05:17:18.354Z,16.90
2018-06-29T05:18:17.888Z,16.99
2018-06-29T05:19:18.241Z,17.08
2018-06-29T05:20:18.980Z,17.12
2018-06-29T05:21:18.428Z,17.23
2018-06-29T05:22:18.223Z,17.29
2018-06-29T05:23:17.834Z,17.33
2018-06-29T05:24:18.385Z,17.38
2018-06-29T05:25:18.140Z,17.42
2018-06-29T05:26:43.082Z,17.49
2018-06-29T05:27:43.671Z,17.56
2018-06-29T05:28:43.305Z,17.60
2018-06-29T05:29:43.755Z,17.63
2018-06-29T05:30:43.555Z,17.67
2018-06-29T05:32:07.015Z,17.76
2018-06-29T05:33:52.824Z,17.86
2018-06-29T05:34:52.674Z,17.92
2018-06-29T05:35:52.850Z,17.95
2018-06-29T05:36:52.404Z,18.05
2018-06-29T05:37:53.032Z,18.15
2018-06-29T05:38:52.677Z,18.25
2018-06-29T05:39:52.438Z,18.35
2018-06-29T05:40:53.172Z,18.45
2018-06-29T05:41:53.032Z,18.50
2018-06-29T05:43:16.656Z,18.58
2018-06-29T05:44:17.203Z,18.65
2018-06-29T05:45:17.280Z,18.71
2018-06-29T05:46:17.103Z,18.74
2018-06-29T05:47:16.862Z,18.80
2018-06-29T05:48:16.835Z,18.88
2018-06-29T05:49:16.744Z,18.95
2018-06-29T05:51:03.964Z,19.09
2018-06-29T05:52:04.644Z,19.21
2018-06-29T05:53:04.353Z,19.27
2018-06-29T05:54:04.273Z,19.33
2018-06-29T05:55:05.227Z,19.39
2018-06-29T05:56:05.120Z,19.47
2018-06-29T05:57:05.363Z,19.52
2018-06-29T05:58:05.200Z,19.59
2018-06-29T05:59:05.042Z,19.67
2018-06-29T06:00:05.154Z,19.74
2018-06-29T06:01:04.871Z,19.81
2018-06-29T06:02:04.548Z,19.89
2018-06-29T06:03:04.152Z,20.00
2018-06-29T06:04:04.992Z,20.10
2018-06-29T06:05:04.788Z,20.19
2018-06-29T06:06:26.900Z,20.28
2018-06-29T06:07:26.788Z,20.36
2018-06-29T06:08:26.556Z,20.51
2018-06-29T06:09:27.468Z,20.62
2018-06-29T06:10:26.288Z,20.75
2018-06-29T06:11:27.290Z,20.85
2018-06-29T06:12:27.797Z,20.96
2018-06-29T06:13:26.368Z,21.00
2018-06-29T06:14:28.045Z,21.09
2018-06-29T06:15:26.790Z,21.22
2018-06-29T06:16:31.663Z,21.36
2018-06-29T06:17:53.627Z,21.43
2018-06-29T06:18:59.047Z,21.54
2018-06-29T06:19:54.446Z,21.66
2018-06-29T06:20:54.044Z,21.77
2018-06-29T06:21:53.635Z,21.92
2018-06-29T06:22:54.641Z,22.04
2018-06-29T06:23:54.628Z,22.06
2018-06-29T06:24:54.108Z,22.11
2018-06-29T06:25:58.300Z,22.18
2018-06-29T06:26:55.356Z,22.30
2018-06-29T06:27:55.276Z,22.51
2018-06-29T06:28:53.893Z,22.66
2018-06-29T06:29:55.076Z,22.70
2018-06-29T06:30:54.124Z,22.76
2018-06-29T06:31:54.357Z,22.93
2018-06-29T06:32:54.200Z,23.12
2018-06-29T06:33:54.425Z,23.28
2018-06-29T06:34:54.317Z,23.43
2018-06-29T06:35:54.699Z,23.59
2018-06-29T06:36:54.417Z,23.66
2018-06-29T06:37:54.265Z,23.59
2018-06-29T06:38:53.965Z,23.69
2018-06-29T06:39:54.516Z,23.77
2018-06-29T06:40:54.453Z,23.78
2018-06-29T06:41:54.735Z,23.86
2018-06-29T06:42:56.451Z,24.01
2018-06-29T06:43:54.676Z,24.18
2018-06-29T06:45:17.156Z,24.39
2018-06-29T06:46:16.822Z,24.54
2018-06-29T06:47:17.629Z,24.65
2018-06-29T06:48:18.320Z,24.76
2018-06-29T06:49:17.675Z,24.89
2018-06-29T06:50:40.914Z,25.11
2018-06-29T06:51:47.274Z,25.18
2018-06-29T06:52:40.959Z,25.31
2018-06-29T06:53:41.937Z,25.51
2018-06-29T06:54:48.838Z,25.63
2018-06-29T06:55:43.796Z,25.75
2018-06-29T06:57:14.091Z,25.83
2018-06-29T06:58:14.779Z,25.99
2018-06-29T06:59:14.469Z,26.10
2018-06-29T07:00:14.413Z,26.18
2018-06-29T07:01:38.820Z,26.21
2018-06-29T07:03:08.140Z,26.21
2018-06-29T07:04:39.767Z,26.44
2018-06-29T07:05:38.900Z,26.45
2018-06-29T07:06:38.977Z,26.58
2018-06-29T07:07:39.225Z,26.75
2018-06-29T07:09:04.045Z,26.89
2018-06-29T07:10:04.617Z,27.07
2018-06-29T07:11:04.741Z,27.14
2018-06-29T07:12:51.794Z,26.99
2018-06-29T07:13:51.827Z,26.96
2018-06-29T07:14:51.982Z,27.11
2018-06-29T07:16:15.660Z,27.33
2018-06-29T07:17:15.613Z,27.48
2018-06-29T07:18:16.671Z,27.63
2018-06-29T07:19:15.502Z,27.77
2018-06-29T07:20:16.462Z,27.78
2018-06-29T07:21:16.368Z,27.98
2018-06-29T07:22:40.199Z,28.00
2018-06-29T07:23:39.797Z,28.26
2018-06-29T07:25:01.888Z,28.39
2018-06-29T07:26:02.493Z,28.56
2018-06-29T07:27:02.449Z,28.63
2018-06-29T07:28:02.056Z,28.78
2018-06-29T07:29:03.195Z,28.93
2018-06-29T07:30:02.871Z,28.91
2018-06-29T07:31:02.712Z,29.08
2018-06-29T07:32:02.643Z,29.19
2018-06-29T07:33:02.439Z,29.32
2018-06-29T07:34:02.150Z,29.54
2018-06-29T07:35:03.155Z,29.56
2018-06-29T07:36:02.834Z,29.57
2018-06-29T07:37:02.581Z,29.68
2018-06-29T07:38:02.438Z,29.79
2018-06-29T07:39:02.618Z,29.88
2018-06-29T07:40:03.003Z,29.98
2018-06-29T07:41:02.709Z,30.13
2018-06-29T07:42:02.323Z,30.16
2018-06-29T07:43:02.227Z,30.13
2018-06-29T07:44:03.207Z,30.18
2018-06-29T07:45:02.325Z,29.86
2018-06-29T07:46:02.600Z,29.91
2018-06-29T07:47:02.804Z,29.93
2018-06-29T07:48:02.509Z,30.13
2018-06-29T07:49:02.245Z,30.32
2018-06-29T07:50:02.050Z,30.39
2018-06-29T07:51:02.851Z,30.51
2018-06-29T07:52:03.034Z,30.65
2018-06-29T07:53:26.398Z,30.81
2018-06-29T07:54:26.997Z,30.81
2018-06-29T07:55:50.755Z,30.96
2018-06-29T07:56:51.610Z,31.18
2018-06-29T07:57:51.589Z,31.31
2018-06-29T07:58:51.744Z,31.28
2018-06-29T08:00:36.903Z,31.27
2018-06-29T08:01:37.764Z,31.15
2018-06-29T08:02:37.753Z,31.22
2018-06-29T08:04:01.404Z,31.21
2018-06-29T08:05:02.292Z,31.25
2018-06-29T08:06:02.334Z,31.37
2018-06-29T08:07:25.839Z,31.31
2018-06-29T08:08:25.571Z,31.42
2018-06-29T08:09:26.538Z,31.49
2018-06-29T08:10:26.500Z,31.40
2018-06-29T08:11:26.552Z,31.56
2018-06-29T08:12:26.682Z,31.80
2018-06-29T08:13:26.470Z,31.81
2018-06-29T08:14:26.349Z,31.66
2018-06-29T08:15:26.494Z,31.81
2018-06-29T08:16:26.293Z,31.85
2018-06-29T08:17:26.306Z,32.04
2018-06-29T08:18:26.131Z,32.27
2018-06-29T08:19:50.367Z,32.08
2018-06-29T08:20:49.989Z,32.01
2018-06-29T08:21:50.824Z,32.14
2018-06-29T08:22:50.963Z,32.26
2018-06-29T08:23:50.750Z,32.30
2018-06-29T08:24:50.758Z,32.12
2018-06-29T08:25:50.351Z,32.21
2018-06-29T08:26:50.306Z,32.45
2018-06-29T08:27:50.426Z,32.59
2018-06-29T08:28:50.667Z,32.70
2018-06-29T08:30:14.400Z,32.37
2018-06-29T08:32:26.754Z,32.68
2018-06-29T08:33:49.966Z,32.77
2018-06-29T08:34:50.748Z,32.77
2018-06-29T08:35:50.669Z,32.71
2018-06-29T08:36:50.629Z,32.67
2018-06-29T08:37:50.310Z,32.90
2018-06-29T08:38:51.130Z,33.00
2018-06-29T08:39:51.155Z,33.12
2018-06-29T08:40:50.641Z,33.43
2018-06-29T08:41:50.610Z,33.50
2018-06-29T08:42:50.434Z,33.37
2018-06-29T08:43:50.259Z,33.11
2018-06-29T08:45:13.204Z,33.32
2018-06-29T08:46:14.056Z,33.43
2018-06-29T08:47:13.970Z,33.50
2018-06-29T08:48:14.133Z,33.32
2018-06-29T08:49:37.659Z,32.71
2018-06-29T08:50:38.677Z,32.65
2018-06-29T08:51:38.649Z,32.77
2018-06-29T08:52:38.360Z,32.92
2018-06-29T08:53:38.578Z,32.86
2018-06-29T08:54:38.209Z,32.93
2018-06-29T08:55:38.263Z,32.92
2018-06-29T08:56:38.569Z,32.97
2018-06-29T08:58:02.535Z,33.27
2018-06-29T08:59:03.116Z,33.40
2018-06-29T09:00:03.177Z,33.53
2018-06-29T09:01:03.241Z,33.57
2018-06-29T09:02:03.307Z,33.59
2018-06-29T09:03:03.487Z,33.89
2018-06-29T09:04:02.514Z,34.11
2018-06-29T09:05:24.320Z,34.40
2018-06-29T09:06:25.705Z,34.61
2018-06-29T09:07:24.600Z,34.61
2018-06-29T09:08:48.272Z,34.75
2018-06-29T09:09:49.274Z,34.85
2018-06-29T09:11:12.703Z,34.57
2018-06-29T09:12:36.457Z,34.54
2018-06-29T09:14:02.706Z,34.32
2018-06-29T09:15:26.002Z,34.60
2018-06-29T09:16:26.213Z,34.92
2018-06-29T09:17:26.265Z,34.92
2018-06-29T09:18:26.603Z,34.83
2018-06-29T09:19:26.455Z,34.95
2018-06-29T09:20:26.659Z,34.83
2018-06-29T09:21:26.719Z,34.74
2018-06-29T09:22:26.822Z,34.99
2018-06-29T09:23:26.970Z,35.24
2018-06-29T09:24:27.186Z,35.33
2018-06-29T09:25:26.454Z,35.55
2018-06-29T09:26:26.589Z,35.60
2018-06-29T09:27:50.625Z,35.52
2018-06-29T09:28:50.764Z,35.29
2018-06-29T09:29:50.300Z,35.30
2018-06-29T09:30:51.200Z,35.10
2018-06-29T09:31:51.006Z,35.26
2018-06-29T09:32:50.599Z,35.52
2018-06-29T09:33:50.076Z,35.67
2018-06-29T09:34:50.806Z,35.56
2018-06-29T09:35:50.276Z,35.31
2018-06-29T09:36:50.795Z,35.15
2018-06-29T09:37:51.765Z,35.26
2018-06-29T09:38:51.084Z,35.41
2018-06-29T09:39:50.707Z,35.67
2018-06-29T09:40:50.689Z,35.88
2018-06-29T09:41:50.573Z,35.74
2018-06-29T09:42:50.453Z,35.97
2018-06-29T09:43:51.030Z,36.20
2018-06-29T09:44:50.826Z,36.31
2018-06-29T09:46:13.688Z,36.07
2018-06-29T09:47:38.137Z,36.35
2018-06-29T09:48:38.633Z,36.27
2018-06-29T09:50:01.879Z,36.45
2018-06-29T09:51:25.756Z,36.72
2018-06-29T09:52:26.542Z,36.96
2018-06-29T09:53:26.442Z,36.96
2018-06-29T09:54:26.346Z,36.74
2018-06-29T09:55:26.041Z,36.54
2018-06-29T09:56:27.108Z,36.62
2018-06-29T09:57:49.772Z,36.80
2018-06-29T09:58:50.312Z,36.83
2018-06-29T09:59:49.898Z,36.67
2018-06-29T10:00:55.331Z,36.93
2018-06-29T10:02:14.990Z,36.96
2018-06-29T10:03:36.703Z,37.07
2018-06-29T10:04:37.302Z,37.17
2018-06-29T10:05:37.246Z,37.18
2018-06-29T10:07:00.764Z,37.11
2018-06-29T10:08:22.200Z,36.45
2018-06-29T10:09:23.168Z,36.43
2018-06-29T10:10:22.557Z,36.65
2018-06-29T10:12:07.257Z,37.01
2018-06-29T10:13:07.801Z,36.89
2018-06-29T10:14:07.291Z,36.96
2018-06-29T10:15:08.452Z,36.96
2018-06-29T10:16:08.370Z,36.81
2018-06-29T10:17:08.339Z,37.02
2018-06-29T10:18:08.132Z,36.84
2018-06-29T10:19:07.809Z,36.76
2018-06-29T10:20:07.520Z,36.73
2018-06-29T10:21:07.292Z,36.86
2018-06-29T10:22:07.887Z,36.88
2018-06-29T10:23:30.961Z,37.07
2018-06-29T10:24:32.702Z,37.33
2018-06-29T10:25:31.744Z,37.56
2018-06-29T10:26:31.817Z,37.33
2018-06-29T10:27:31.994Z,37.47
2018-06-29T10:28:31.716Z,37.87
2018-06-29T10:29:31.491Z,37.51
2018-06-29T10:30:31.331Z,37.17
2018-06-29T10:31:30.853Z,36.91
2018-06-29T10:32:31.572Z,36.98
2018-06-29T10:33:53.052Z,37.14
2018-06-29T10:34:53.942Z,37.25
2018-06-29T10:35:53.488Z,37.26
2018-06-29T10:36:53.455Z,37.45
2018-06-29T10:38:16.908Z,37.33
2018-06-29T10:39:16.579Z,37.28
2018-06-29T10:40:17.044Z,37.55
2018-06-29T10:41:16.758Z,37.53
2018-06-29T10:42:17.263Z,37.47
2018-06-29T10:43:16.878Z,37.48
2018-06-29T10:44:16.374Z,37.39
2018-06-29T10:45:17.275Z,37.47
2018-06-29T10:46:16.789Z,37.42
2018-06-29T10:47:17.468Z,37.36
2018-06-29T10:48:17.524Z,37.36
2018-06-29T10:49:16.964Z,37.60
2018-06-29T10:50:16.891Z,37.15
2018-06-29T10:51:16.825Z,37.10
2018-06-29T10:52:16.304Z,37.36
2018-06-29T10:53:16.801Z,37.40
2018-06-29T10:54:16.309Z,37.55
2018-06-29T10:55:17.221Z,37.59
2018-06-29T10:56:16.851Z,37.77
2018-06-29T10:57:40.100Z,37.83
2018-06-29T10:58:40.601Z,37.60
2018-06-29T10:59:40.100Z,37.29
2018-06-29T11:01:03.882Z,37.60
2018-06-29T11:02:03.572Z,37.64
2018-06-29T11:03:04.681Z,37.65
2018-06-29T11:04:04.419Z,37.87
2018-06-29T11:05:04.183Z,37.90
2018-06-29T11:06:04.664Z,37.77
2018-06-29T11:07:04.741Z,37.39
2018-06-29T11:08:04.511Z,37.17
2018-06-29T11:09:04.481Z,37.21
2018-06-29T11:11:38.297Z,37.49
2018-06-29T11:12:38.976Z,37.28
2018-06-29T11:14:02.788Z,37.39
2018-06-29T11:15:02.632Z,37.15
2018-06-29T11:16:02.505Z,37.36
2018-06-29T11:17:02.433Z,37.70
2018-06-29T11:18:02.532Z,37.77
2018-06-29T11:19:02.014Z,37.82
2018-06-29T11:20:03.003Z,37.71
2018-06-29T11:21:26.135Z,37.77
2018-06-29T11:22:26.644Z,37.89
2018-06-29T11:23:26.068Z,38.11
2018-06-29T11:24:50.309Z,38.26
2018-06-29T11:25:50.915Z,38.34
2018-06-29T11:27:14.814Z,38.54
2018-06-29T11:28:15.516Z,38.49
2018-06-29T11:29:15.311Z,38.33
2018-06-29T11:30:15.369Z,38.24
2018-06-29T11:31:15.294Z,38.27
2018-06-29T11:32:14.923Z,38.31
2018-06-29T11:33:38.649Z,38.46
2018-06-29T11:34:39.733Z,38.60
2018-06-29T11:36:03.179Z,38.49
2018-06-29T11:37:03.278Z,38.61
2018-06-29T11:38:03.551Z,38.69
2018-06-29T11:39:03.603Z,39.07
2018-06-29T11:40:08.523Z,39.22
2018-06-29T11:41:03.579Z,39.33
2018-06-29T11:42:03.318Z,39.03
2018-06-29T11:43:03.573Z,38.40
2018-06-29T11:44:03.604Z,38.33
2018-06-29T11:45:03.035Z,38.28
2018-06-29T11:46:04.720Z,38.45
2018-06-29T11:47:03.801Z,38.54
2018-06-29T11:48:03.466Z,38.21
2018-06-29T11:49:24.712Z,37.89
2018-06-29T11:50:25.465Z,37.70
2018-06-29T11:51:25.274Z,37.74
2018-06-29T11:52:25.293Z,37.94
2018-06-29T11:53:46.325Z,38.24
2018-06-29T11:54:46.990Z,38.33
2018-06-29T11:56:08.093Z,38.12
2018-06-29T11:57:08.843Z,37.71
2018-06-29T11:58:29.573Z,37.68
2018-06-29T11:59:30.214Z,37.75
2018-06-29T12:00:30.636Z,37.94
2018-06-29T12:01:51.774Z,38.23
2018-06-29T12:02:52.363Z,38.58
2018-06-29T12:03:52.358Z,38.52
2018-06-29T12:04:51.971Z,38.57
2018-06-29T12:05:51.883Z,38.86
2018-06-29T12:06:52.382Z,39.04
2018-06-29T12:07:52.375Z,38.95
2018-06-29T12:09:13.181Z,38.87
2018-06-29T12:10:13.953Z,39.09
2018-06-29T12:11:13.592Z,39.19
2018-06-29T12:12:14.092Z,39.21
2018-06-29T12:13:13.846Z,39.07
2018-06-29T12:14:13.386Z,38.80
2018-06-29T12:15:14.066Z,38.55
2018-06-29T12:16:13.513Z,38.68
2018-06-29T12:17:13.222Z,38.83
2018-06-29T12:18:14.199Z,38.76
2018-06-29T12:19:14.186Z,38.95
2018-06-29T12:20:13.781Z,38.71
2018-06-29T12:21:13.603Z,38.65
2018-06-29T12:22:13.508Z,38.34
2018-06-29T12:23:14.278Z,38.08
2018-06-29T12:24:37.346Z,38.19
2018-06-29T12:25:38.351Z,38.34
2018-06-29T12:26:59.748Z,38.62
2018-06-29T12:28:00.681Z,38.69
2018-06-29T12:29:00.485Z,38.79
2018-06-29T12:30:00.052Z,38.80
2018-06-29T12:30:59.885Z,38.60
2018-06-29T12:31:59.582Z,38.42
2018-06-29T12:33:00.466Z,38.24
2018-06-29T12:34:43.230Z,38.20
2018-06-29T12:35:43.003Z,38.57
2018-06-29T12:36:43.565Z,38.82
2018-06-29T12:38:07.031Z,38.89
2018-06-29T12:39:06.794Z,38.99
2018-06-29T12:40:07.614Z,38.95
2018-06-29T12:41:07.390Z,38.76
2018-06-29T12:42:06.888Z,38.42
2018-06-29T12:43:07.424Z,38.48
2018-06-29T12:44:30.728Z,38.80
2018-06-29T12:45:33.243Z,38.95
2018-06-29T12:46:31.347Z,38.92
2018-06-29T12:47:30.906Z,38.80
2018-06-29T12:48:31.710Z,38.67
2018-06-29T12:49:31.659Z,38.38
2018-06-29T12:50:53.241Z,38.58
2018-06-29T12:51:53.228Z,38.52
2018-06-29T12:52:52.893Z,38.40
2018-06-29T12:53:53.829Z,38.49
2018-06-29T12:54:53.503Z,38.50
2018-06-29T12:56:16.010Z,38.28
2018-06-29T12:57:38.710Z,38.33
2018-06-29T12:59:00.649Z,38.30
2018-06-29T13:00:01.200Z,38.58
2018-06-29T13:01:01.090Z,38.74
2018-06-29T13:02:00.757Z,38.73
2018-06-29T13:03:00.990Z,38.60
2018-06-29T13:04:01.481Z,38.20
2018-06-29T13:05:00.874Z,37.83
2018-06-29T13:06:00.727Z,37.77
2018-06-29T13:07:00.680Z,37.71
2018-06-29T13:08:00.662Z,37.94
2018-06-29T13:09:00.352Z,38.11
2018-06-29T13:10:00.287Z,37.78
2018-06-29T13:11:00.341Z,37.44
2018-06-29T13:12:00.967Z,37.25
2018-06-29T13:13:23.485Z,37.11
2018-06-29T13:14:23.109Z,37.26
2018-06-29T13:15:45.419Z,37.35
2018-06-29T13:16:45.418Z,37.44
2018-06-29T13:17:45.871Z,37.32
2018-06-29T13:18:45.500Z,37.39
2018-06-29T13:19:46.018Z,37.49
2018-06-29T13:21:08.214Z,37.15
2018-06-29T13:22:07.869Z,37.10
2018-06-29T13:23:52.983Z,36.92
2018-06-29T13:25:39.325Z,36.52
2018-06-29T13:26:40.796Z,36.20
2018-06-29T13:27:40.381Z,36.12
2018-06-29T13:29:24.034Z,36.27
2018-06-29T13:30:24.779Z,35.92
2018-06-29T13:31:24.935Z,36.01
2018-06-29T13:32:25.195Z,36.21
2018-06-29T13:33:25.054Z,36.31
2018-06-29T13:34:24.367Z,36.37
2018-06-29T13:35:24.181Z,36.57
2018-06-29T13:36:24.184Z,36.67
2018-06-29T13:37:45.874Z,36.79
2018-06-29T13:38:50.894Z,36.80
2018-06-29T13:39:46.830Z,36.83
2018-06-29T13:40:47.807Z,36.62
2018-06-29T13:42:07.941Z,36.59
2018-06-29T13:43:11.871Z,36.40
2018-06-29T13:44:09.430Z,36.33
2018-06-29T13:45:08.562Z,36.20
2018-06-29T13:46:09.580Z,36.33
2018-06-29T13:47:09.544Z,36.27
2018-06-29T13:48:08.883Z,36.08